North Eastham, Massachusetts
Current Conditions -  °F | °C
As of 11:52 AM on Wednesday 22 Oct 2014 (Local Time) from KCQX Reporting Station
Haze Haze  
Wind Chill: 57°   Ceiling: 400
Heat Index: 57°   Visibility: 4mi
Dew Point: 56°   Wind: 14mph
Humidity: 96%   Direction: 40°NE
Pressure: 29.88"   Gusts: 24mph
Location:  41.85°N, 70°W
Report Text: KCQX 221552Z AUTO 04012G21KT 4SM BR OVC004 14/13 A2988 RMK AO2 RAB01E40 SLP118 P0001 T01390133
Loading
Personal Weather Stations






























Interactive Weather Map
Tropical Storm Tracking
New forecast layout! Learn more

10-Day Weather Forecast

Advertisements
Track Severe Weather on mobile